createdAt,value
2018-08-23T00:01:28.852Z,98464.97
2018-08-23T00:03:55.643Z,98469.69
2018-08-23T00:06:22.569Z,98468.78
2018-08-23T00:08:49.272Z,98464.19
2018-08-23T00:11:15.797Z,98464.65
2018-08-23T00:13:42.586Z,98462.58
2018-08-23T00:16:09.101Z,98466.29
2018-08-23T00:18:35.573Z,98463.13
2018-08-23T00:21:03.398Z,98462.42
2018-08-23T00:23:30.259Z,98458.80
2018-08-23T00:25:56.710Z,98452.75
2018-08-23T00:28:23.202Z,98455.55
2018-08-23T00:30:49.702Z,98448.80
2018-08-23T00:33:16.461Z,98447.36
2018-08-23T00:35:42.945Z,98440.25
2018-08-23T00:38:09.429Z,98441.53
2018-08-23T00:40:36.173Z,98435.38
2018-08-23T00:43:02.661Z,98434.59
2018-08-23T00:45:29.118Z,98437.44
2018-08-23T00:47:56.907Z,98432.01
2018-08-23T00:50:23.392Z,98434.30
2018-08-23T00:52:49.849Z,98426.92
2018-08-23T00:55:16.322Z,98434.24
2018-08-23T00:57:43.063Z,98434.29
2018-08-23T01:00:09.510Z,98433.27
2018-08-23T01:02:36.007Z,98433.01
2018-08-23T01:05:02.486Z,98429.73
2018-08-23T01:07:31.198Z,98429.47
2018-08-23T01:09:57.677Z,98423.22
2018-08-23T01:12:24.159Z,98426.05
2018-08-23T01:14:50.647Z,98424.38
2018-08-23T01:17:17.385Z,98424.70
2018-08-23T01:19:43.871Z,98417.84
2018-08-23T01:22:10.332Z,98416.41
2018-08-23T01:24:37.082Z,98417.89
2018-08-23T01:27:03.563Z,98416.66
2018-08-23T01:29:30.019Z,98416.45
2018-08-23T01:31:56.470Z,98414.30
2018-08-23T01:34:23.243Z,98406.20
2018-08-23T01:36:49.750Z,98408.40
2018-08-23T01:39:17.409Z,98402.87
2018-08-23T01:41:43.869Z,98397.01
2018-08-23T01:44:10.641Z,98394.70
2018-08-23T01:46:37.159Z,98399.53
2018-08-23T01:49:03.654Z,98395.08
2018-08-23T01:51:30.139Z,98394.77
2018-08-23T01:53:56.934Z,98390.81
2018-08-23T01:56:23.425Z,98386.75
2018-08-23T01:58:49.903Z,98385.30
2018-08-23T02:01:16.414Z,98386.75
2018-08-23T02:03:43.166Z,98384.28
2018-08-23T02:06:09.651Z,98378.98
2018-08-23T02:08:36.106Z,98375.73
2018-08-23T02:11:02.562Z,98375.77
2018-08-23T02:13:29.340Z,98375.50
2018-08-23T02:15:55.817Z,98383.40
2018-08-23T02:18:22.276Z,98384.69
2018-08-23T02:20:48.750Z,98380.36
2018-08-23T02:23:15.509Z,98373.50
2018-08-23T02:25:41.992Z,98383.21
2018-08-23T02:28:08.465Z,98380.98
2018-08-23T02:30:34.964Z,98377.12
2018-08-23T02:33:01.754Z,98379.47
2018-08-23T02:35:28.252Z,98376.82
2018-08-23T02:37:54.735Z,98377.22
2018-08-23T02:40:21.539Z,98377.59
2018-08-23T02:42:48.035Z,98366.52
2018-08-23T02:45:14.485Z,98362.89
2018-08-23T02:47:40.950Z,98366.16
2018-08-23T02:50:07.742Z,98363.60
2018-08-23T02:52:34.194Z,98367.49
2018-08-23T02:55:00.650Z,98362.30
2018-08-23T02:57:27.101Z,98367.05
2018-08-23T02:59:53.846Z,98367.44
2018-08-23T03:02:20.391Z,98360.29
2018-08-23T03:04:46.875Z,98358.94
2018-08-23T03:07:13.676Z,98351.88
2018-08-23T03:09:40.120Z,98353.64
2018-08-23T03:12:06.607Z,98338.96
2018-08-23T03:14:33.138Z,98339.30
2018-08-23T03:16:59.914Z,98346.72
2018-08-23T03:19:26.419Z,98339.36
2018-08-23T03:21:52.873Z,98342.31
2018-08-23T03:24:19.348Z,98343.25
2018-08-23T03:26:46.382Z,98338.28
2018-08-23T03:29:12.874Z,98340.70
2018-08-23T03:31:39.342Z,98330.73
2018-08-23T03:34:06.095Z,98331.47
2018-08-23T03:36:32.574Z,98335.58
2018-08-23T03:38:59.058Z,98327.47
2018-08-23T03:41:26.497Z,98335.41
2018-08-23T03:43:53.241Z,98334.45
2018-08-23T03:46:19.735Z,98326.22
2018-08-23T03:48:46.226Z,98326.59
2018-08-23T03:51:12.689Z,98330.22
2018-08-23T03:53:39.446Z,98324.03
2018-08-23T03:56:05.914Z,98323.83
2018-08-23T03:58:32.394Z,98327.70
2018-08-23T04:00:59.529Z,98327.34
2018-08-23T04:03:26.299Z,98327.84
2018-08-23T04:05:52.787Z,98323.97
2018-08-23T04:08:19.267Z,98323.90
2018-08-23T04:10:45.725Z,98320.23
2018-08-23T04:13:12.514Z,98320.83
2018-08-23T04:15:40.642Z,98325.70
2018-08-23T04:18:07.131Z,98314.81
2018-08-23T04:20:35.076Z,98318.80
2018-08-23T04:23:01.596Z,98324.73
2018-08-23T04:25:28.061Z,98319.20
2018-08-23T04:27:54.527Z,98319.33
2018-08-23T04:30:21.313Z,98321.84
2018-08-23T04:32:48.826Z,98324.41
2018-08-23T04:35:15.322Z,98320.76
2018-08-23T04:37:42.109Z,98320.54
2018-08-23T04:40:08.602Z,98327.80
2018-08-23T04:42:35.118Z,98318.95
2018-08-23T04:45:03.057Z,98320.41
2018-08-23T04:47:30.098Z,98328.77
2018-08-23T04:49:56.868Z,98328.64
2018-08-23T04:52:23.745Z,98320.27
2018-08-23T04:54:50.216Z,98315.80
2018-08-23T04:57:16.669Z,98318.84
2018-08-23T04:59:43.123Z,98307.68
2018-08-23T05:02:10.639Z,98313.76
2018-08-23T05:04:37.120Z,98307.20
2018-08-23T05:07:03.578Z,98311.81
2018-08-23T05:09:30.326Z,98312.90
2018-08-23T05:11:56.814Z,98315.32
2018-08-23T05:14:24.209Z,98316.19
2018-08-23T05:16:50.975Z,98319.19
2018-08-23T05:19:17.470Z,98312.49
2018-08-23T05:21:43.954Z,98313.33
2018-08-23T05:24:10.729Z,98317.78
2018-08-23T05:26:37.225Z,98309.89
2018-08-23T05:29:03.730Z,98314.91
2018-08-23T05:31:30.510Z,98312.35
2018-08-23T05:33:58.631Z,98318.89
2018-08-23T05:36:25.118Z,98309.83
2018-08-23T05:38:51.898Z,98308.56
2018-08-23T05:41:18.394Z,98306.98
2018-08-23T05:43:44.883Z,98304.83
2018-08-23T05:46:11.641Z,98307.61
2018-08-23T05:48:38.103Z,98310.25
2018-08-23T05:51:04.593Z,98308.05
2018-08-23T05:53:32.430Z,98304.84
2018-08-23T05:55:58.959Z,98307.29
2018-08-23T05:58:25.630Z,98304.11
2018-08-23T06:00:52.465Z,98303.15
2018-08-23T06:03:18.949Z,98297.44
2018-08-23T06:05:45.407Z,98293.75
2018-08-23T06:08:12.186Z,98299.16
2018-08-23T06:10:38.721Z,98296.45
2018-08-23T06:13:05.223Z,98295.39
2018-08-23T06:15:31.997Z,98289.98
2018-08-23T06:17:58.484Z,98294.86
2018-08-23T06:20:25.468Z,98298.97
2018-08-23T06:22:52.249Z,98296.34
2018-08-23T06:25:18.705Z,98295.91
2018-08-23T06:27:45.187Z,98295.17
2018-08-23T06:30:11.960Z,98301.00
2018-08-23T06:32:38.457Z,98304.56
2018-08-23T06:35:04.962Z,98302.47
2018-08-23T06:37:31.745Z,98301.34
2018-08-23T06:39:58.262Z,98303.75
2018-08-23T06:42:24.715Z,98298.12
2018-08-23T06:44:51.891Z,98294.81
2018-08-23T06:47:18.366Z,98294.39
2018-08-23T06:49:44.854Z,98290.94
2018-08-23T06:52:12.435Z,98286.87
2018-08-23T06:54:39.003Z,98289.04
2018-08-23T06:57:05.483Z,98300.59
2018-08-23T06:59:32.238Z,98291.53
2018-08-23T07:01:58.734Z,98289.80
2018-08-23T07:04:25.210Z,98291.65
2018-08-23T07:06:52.040Z,98287.89
2018-08-23T07:09:19.436Z,98282.51
2018-08-23T07:11:46.009Z,98289.56
2018-08-23T07:14:12.750Z,98286.01
2018-08-23T07:16:39.227Z,98284.08
2018-08-23T07:19:05.803Z,98280.74
2018-08-23T07:21:32.560Z,98290.22
2018-08-23T07:23:59.033Z,98285.02
2018-08-23T07:26:25.561Z,98288.52
2018-08-23T07:28:52.344Z,98287.48
2018-08-23T07:31:18.834Z,98284.59
2018-08-23T07:33:46.131Z,98288.67
2018-08-23T07:36:12.930Z,98281.91
2018-08-23T07:38:39.389Z,98287.89
2018-08-23T07:41:05.862Z,98289.31
2018-08-23T07:43:32.628Z,98290.09
2018-08-23T07:45:59.326Z,98288.02
2018-08-23T07:48:26.606Z,98287.25
2018-08-23T07:50:53.346Z,98286.33
2018-08-23T07:53:19.897Z,98286.55
2018-08-23T07:55:46.348Z,98291.34
2018-08-23T07:58:13.176Z,98292.66
2018-08-23T08:00:39.635Z,98286.97
2018-08-23T08:03:06.594Z,98292.61
2018-08-23T08:05:36.195Z,98293.68
2018-08-23T08:08:02.678Z,98287.53
2018-08-23T08:10:29.186Z,98289.58
2018-08-23T08:12:55.929Z,98289.69
2018-08-23T08:15:22.669Z,98291.55
2018-08-23T08:17:49.965Z,98283.02
2018-08-23T08:20:17.530Z,98280.11
2018-08-23T08:22:45.501Z,98279.75
2018-08-23T08:25:11.983Z,98277.24
2018-08-23T08:27:38.775Z,98278.46
2018-08-23T08:30:07.100Z,98277.77
2018-08-23T08:32:34.156Z,98285.59
2018-08-23T08:35:00.942Z,98286.23
2018-08-23T08:37:27.450Z,98276.81
2018-08-23T08:39:53.960Z,98283.12
2018-08-23T08:42:20.757Z,98278.06
2018-08-23T08:44:47.238Z,98280.47
2018-08-23T08:47:13.690Z,98276.75
2018-08-23T08:49:40.169Z,98274.74
2018-08-23T08:52:06.661Z,98269.69
2018-08-23T08:54:33.431Z,98266.15
2018-08-23T08:57:03.593Z,98261.64
2018-08-23T08:59:30.077Z,98256.37
2018-08-23T09:01:56.879Z,98256.33
2018-08-23T09:04:23.394Z,98252.28
2018-08-23T09:06:50.928Z,98253.48
2018-08-23T09:09:17.681Z,98252.66
2018-08-23T09:11:44.166Z,98251.50
2018-08-23T09:14:12.284Z,98248.77
2018-08-23T09:16:39.229Z,98249.24
2018-08-23T09:19:05.719Z,98248.94
2018-08-23T09:21:32.195Z,98248.63
2018-08-23T09:23:58.942Z,98239.31
2018-08-23T09:26:25.393Z,98235.84
2018-08-23T09:28:51.866Z,98242.39
2018-08-23T09:31:18.697Z,98233.88
2018-08-23T09:33:45.230Z,98236.88
2018-08-23T09:36:12.603Z,98228.38
2018-08-23T09:38:41.332Z,98225.30
2018-08-23T09:41:07.800Z,98227.68
2018-08-23T09:43:34.268Z,98228.05
2018-08-23T09:46:03.636Z,98221.66
2018-08-23T09:48:30.084Z,98220.75
2018-08-23T09:50:56.581Z,98213.69
2018-08-23T09:53:23.322Z,98212.72
2018-08-23T09:55:51.160Z,98216.61
2018-08-23T09:58:19.106Z,98208.31
2018-08-23T10:00:48.465Z,98219.28
2018-08-23T10:03:14.957Z,98210.87
2018-08-23T10:05:41.442Z,98210.76
2018-08-23T10:08:08.302Z,98202.74
2018-08-23T10:10:34.921Z,98213.92
2018-08-23T10:13:01.393Z,98208.29
2018-08-23T10:15:28.135Z,98192.80
2018-08-23T10:17:54.589Z,98192.20
2018-08-23T10:20:22.017Z,98193.89
2018-08-23T10:22:48.940Z,98202.48
2018-08-23T10:25:15.717Z,98201.53
2018-08-23T10:27:43.238Z,98197.43
2018-08-23T10:30:10.153Z,98195.48
2018-08-23T10:32:37.160Z,98196.58
2018-08-23T10:35:03.762Z,98196.84
2018-08-23T10:37:30.513Z,98191.73
2018-08-23T10:39:57.229Z,98191.66
2018-08-23T10:42:23.699Z,98197.30
2018-08-23T10:44:50.580Z,98173.20
2018-08-23T10:47:17.133Z,98180.42
2018-08-23T10:49:43.797Z,98190.76
2018-08-23T10:52:10.678Z,98183.69
2018-08-23T10:57:08.417Z,98186.91
2018-08-23T10:59:38.314Z,98174.64
2018-08-23T11:02:05.437Z,98177.06
2018-08-23T11:04:31.987Z,98179.91
2018-08-23T11:06:58.729Z,98188.55
2018-08-23T11:09:25.389Z,98182.59
2018-08-23T11:11:52.002Z,98188.35
2018-08-23T11:14:19.517Z,98183.23
2018-08-23T11:16:47.418Z,98173.58
2018-08-23T11:19:15.221Z,98179.19
2018-08-23T11:21:43.001Z,98180.88
2018-08-23T11:24:09.499Z,98183.78
2018-08-23T11:26:36.265Z,98181.15
2018-08-23T11:29:03.086Z,98186.44
2018-08-23T11:38:25.256Z,98179.87
2018-08-23T11:40:52.108Z,98172.51
2018-08-23T11:43:18.687Z,98170.38
2018-08-23T11:45:47.125Z,98180.78
2018-08-23T11:48:14.591Z,98171.18
2018-08-23T11:50:41.445Z,98169.52
2018-08-23T11:53:08.089Z,98164.77
2018-08-23T11:58:08.399Z,98162.77
2018-08-23T12:00:35.254Z,98156.20
2018-08-23T12:03:02.383Z,98160.00
2018-08-23T12:05:32.166Z,98158.57
2018-08-23T12:07:58.747Z,98155.61
2018-08-23T12:10:25.551Z,98152.56
2018-08-23T12:12:52.353Z,98147.98
2018-08-23T12:15:19.480Z,98147.50
2018-08-23T12:17:45.950Z,98151.33
2018-08-23T12:20:12.767Z,98147.77
2018-08-23T12:22:39.356Z,98140.60
2018-08-23T12:25:05.833Z,98138.92
2018-08-23T12:27:32.682Z,98147.32
2018-08-23T12:29:59.209Z,98148.13
2018-08-23T12:32:25.730Z,98137.80
2018-08-23T12:34:52.856Z,98126.86
2018-08-23T12:37:19.438Z,98128.26
2018-08-23T12:39:46.545Z,98132.75
2018-08-23T12:42:13.329Z,98123.36
2018-08-23T12:44:39.857Z,98092.12
2018-08-23T12:47:08.399Z,98126.53
2018-08-23T12:49:37.436Z,98121.91
2018-08-23T12:52:07.752Z,98119.91
2018-08-23T12:54:34.778Z,98120.20
2018-08-23T12:57:02.665Z,98114.61
2018-08-23T12:59:30.885Z,98110.17
2018-08-23T13:01:57.472Z,98116.78
2018-08-23T13:04:24.433Z,98111.72
2018-08-23T13:06:50.834Z,98101.63
2018-08-23T13:09:17.425Z,98100.72
2018-08-23T13:11:47.202Z,98103.23
2018-08-23T13:14:14.358Z,98099.39
2018-08-23T13:16:42.111Z,98091.31
2018-08-23T13:19:09.967Z,98089.56
2018-08-23T13:21:36.462Z,98083.77
2018-08-23T13:24:04.159Z,98087.98
2018-08-23T13:26:30.957Z,98079.55
2018-08-23T13:28:57.489Z,98083.00
2018-08-23T13:31:23.978Z,98080.77
2018-08-23T13:33:51.394Z,98071.78
2018-08-23T13:36:17.997Z,98103.42
2018-08-23T13:38:44.451Z,98090.74
2018-08-23T13:41:14.319Z,98075.63
2018-08-23T13:43:40.823Z,98088.49
2018-08-23T13:46:07.322Z,98068.70
2018-08-23T13:48:34.414Z,98075.99
2018-08-23T13:51:00.895Z,98071.66
2018-08-23T13:53:27.407Z,98081.81
2018-08-23T13:55:54.988Z,98077.10
2018-08-23T13:58:21.535Z,98084.47
2018-08-23T14:00:49.708Z,98064.50
2018-08-23T14:03:16.525Z,98083.70
2018-08-23T14:05:43.036Z,98084.83
2018-08-23T14:08:09.527Z,98074.55
2018-08-23T14:10:36.271Z,98085.55
2018-08-23T14:13:02.762Z,98073.28
2018-08-23T14:15:30.392Z,98061.06
2018-08-23T14:17:57.484Z,98061.03
2018-08-23T14:20:25.391Z,98066.53
2018-08-23T14:22:51.933Z,98057.79
2018-08-23T14:25:18.758Z,98070.33
2018-08-23T14:27:45.354Z,98054.70
2018-08-23T14:30:12.508Z,98045.86
2018-08-23T14:32:39.316Z,98052.55
2018-08-23T14:35:05.866Z,98071.38
2018-08-23T14:37:32.939Z,98066.06
2018-08-23T14:40:01.878Z,98051.88
2018-08-23T14:42:29.416Z,98046.25
2018-08-23T14:44:56.919Z,98058.32
2018-08-23T14:47:23.722Z,98042.64
2018-08-23T14:49:51.157Z,98053.42
2018-08-23T14:52:17.685Z,98028.92
2018-08-23T14:54:44.473Z,98048.98
2018-08-23T14:57:10.969Z,98029.46
2018-08-23T14:59:38.481Z,98026.23
2018-08-23T15:02:05.449Z,98026.20
2018-08-23T15:04:31.965Z,98025.13
2018-08-23T15:09:37.822Z,98036.83
2018-08-23T15:12:04.391Z,98015.31
2018-08-23T15:14:35.908Z,98022.98
2018-08-23T15:17:08.181Z,98008.64
2018-08-23T15:19:37.461Z,98001.05
2018-08-23T15:22:03.975Z,98012.63
2018-08-23T15:24:30.970Z,98002.49
2018-08-23T15:26:58.470Z,98005.98
2018-08-23T15:29:26.006Z,98002.59
2018-08-23T15:31:55.198Z,97994.33
2018-08-23T15:34:21.687Z,97994.46
2018-08-23T15:36:48.157Z,97988.61
2018-08-23T15:39:14.930Z,97989.84
2018-08-23T15:41:41.450Z,97997.80
2018-08-23T15:44:07.966Z,97989.16
2018-08-23T15:46:34.742Z,97970.61
2018-08-23T15:49:01.228Z,97972.73
2018-08-23T15:51:27.761Z,97972.52
2018-08-23T15:53:55.377Z,97985.47
2018-08-23T15:56:22.564Z,97998.02
2018-08-23T15:58:49.835Z,97985.89
2018-08-23T16:01:22.949Z,97992.48
2018-08-23T16:06:26.189Z,97978.41
2018-08-23T16:08:52.682Z,97988.77
2018-08-23T16:11:19.296Z,97984.38
2018-08-23T16:13:46.363Z,97978.88
2018-08-23T16:16:12.875Z,97987.61
2018-08-23T16:18:39.541Z,97984.57
2018-08-23T16:21:08.260Z,97972.09
2018-08-23T16:23:35.369Z,97977.11
2018-08-23T16:26:01.980Z,97984.66
2018-08-23T16:28:29.418Z,97987.89
2018-08-23T16:30:55.913Z,97984.35
2018-08-23T16:33:23.415Z,97963.85
2018-08-23T16:35:50.214Z,97962.66
2018-08-23T16:38:17.442Z,97967.88
2018-08-23T16:40:43.962Z,97979.47
2018-08-23T16:43:10.728Z,97970.06
2018-08-23T16:45:38.493Z,97973.08
2018-08-23T16:50:38.161Z,97968.34
2018-08-23T16:53:04.673Z,97964.86
2018-08-23T16:55:31.190Z,97975.66
2018-08-23T16:57:59.497Z,97967.91
2018-08-23T17:00:27.979Z,97962.39
2018-08-23T17:02:55.042Z,97972.62
2018-08-23T17:05:22.522Z,97982.88
2018-08-23T17:07:51.215Z,97973.23
2018-08-23T17:10:20.533Z,97982.74
2018-08-23T17:12:48.065Z,97972.41
2018-08-23T17:15:15.258Z,97965.39
2018-08-23T17:17:41.844Z,97967.83
2018-08-23T17:20:09.581Z,97972.34
2018-08-23T17:22:39.281Z,97968.17
2018-08-23T17:25:05.798Z,97963.80
2018-08-23T17:27:33.575Z,97972.69
2018-08-23T17:30:01.553Z,97955.27
2018-08-23T17:32:28.057Z,97952.28
2018-08-23T17:34:55.358Z,97956.56
2018-08-23T17:37:21.874Z,97959.41
2018-08-23T17:39:48.421Z,97956.84
2018-08-23T17:42:18.658Z,97953.84
2018-08-23T17:44:46.101Z,97965.19
2018-08-23T17:47:12.581Z,97958.21
2018-08-23T17:49:39.422Z,97954.11
2018-08-23T17:52:05.897Z,97956.44
2018-08-23T17:54:32.412Z,97969.90
2018-08-23T17:57:04.234Z,97964.50
2018-08-23T17:59:30.784Z,97960.55
2018-08-23T18:01:57.400Z,97965.47
2018-08-23T18:04:24.158Z,97965.66
2018-08-23T18:06:50.730Z,97966.19
2018-08-23T18:09:18.158Z,97958.61
2018-08-23T18:11:44.982Z,97965.14
2018-08-23T18:14:11.479Z,97961.43
2018-08-23T18:16:38.478Z,97959.53
2018-08-23T18:19:05.326Z,97962.83
2018-08-23T18:21:33.187Z,97974.71
2018-08-23T18:26:32.203Z,97981.63
2018-08-23T18:28:59.652Z,97988.52
2018-08-23T18:31:26.409Z,97988.36
2018-08-23T18:33:54.391Z,97999.96
2018-08-23T18:36:20.893Z,97992.71
2018-08-23T18:38:47.377Z,97997.76
2018-08-23T18:41:14.200Z,98006.62
2018-08-23T18:43:40.715Z,97993.32
2018-08-23T18:46:07.251Z,98003.39
2018-08-23T18:48:34.021Z,97994.45
2018-08-23T18:51:00.622Z,98003.83
2018-08-23T18:53:27.153Z,97998.09
2018-08-23T18:55:55.104Z,98009.48
2018-08-23T18:58:22.094Z,98008.47
2018-08-23T19:00:48.614Z,98010.25
2018-08-23T19:03:18.516Z,98009.73
2018-08-23T19:05:46.160Z,98017.92
2018-08-23T19:08:12.744Z,98019.87
2018-08-23T19:10:39.508Z,98017.20
2018-08-23T19:13:08.041Z,98027.37
2018-08-23T19:15:35.221Z,98026.34
2018-08-23T19:18:02.054Z,98040.71
2018-08-23T19:20:29.325Z,98042.19
2018-08-23T19:22:56.473Z,98041.61
2018-08-23T19:25:25.586Z,98040.72
2018-08-23T19:27:53.579Z,98043.84
2018-08-23T19:30:20.306Z,98039.28
2018-08-23T19:32:47.100Z,98042.37
2018-08-23T19:35:15.277Z,98046.48
2018-08-23T19:37:41.812Z,98050.44
2018-08-23T19:40:08.603Z,98041.32
2018-08-23T19:42:38.810Z,98037.59
2018-08-23T19:45:05.583Z,98037.68
2018-08-23T19:47:32.440Z,98040.97
2018-08-23T19:49:58.945Z,98032.99
2018-08-23T19:52:25.518Z,98035.48
2018-08-23T19:54:54.282Z,98031.64
2018-08-23T19:57:20.922Z,98026.72
2018-08-23T19:59:47.438Z,98020.61
2018-08-23T20:02:15.249Z,98020.91
2018-08-23T20:04:42.410Z,98020.68
2018-08-23T20:07:08.906Z,98018.47
2018-08-23T20:09:35.709Z,98022.62
2018-08-23T20:12:02.290Z,98019.37
2018-08-23T20:14:29.543Z,98010.92
2018-08-23T20:16:56.340Z,98013.05
2018-08-23T20:19:22.802Z,98013.68
2018-08-23T20:21:50.292Z,98014.20
2018-08-23T20:24:17.934Z,98014.99
2018-08-23T20:26:44.465Z,98011.41
2018-08-23T20:29:19.873Z,98015.88
2018-08-23T20:31:48.329Z,98004.98
2018-08-23T20:34:15.485Z,98007.36
2018-08-23T20:36:43.459Z,98008.28
2018-08-23T20:39:12.070Z,98004.02
2018-08-23T20:41:40.813Z,98000.00
2018-08-23T20:44:08.453Z,97998.14
2018-08-23T20:46:35.694Z,98000.10
2018-08-23T20:49:03.053Z,97997.10
2018-08-23T20:51:31.455Z,97989.01
2018-08-23T20:53:57.945Z,98001.83
2018-08-23T20:56:24.435Z,97993.75
2018-08-23T20:58:52.074Z,97996.23
2018-08-23T21:01:19.146Z,98001.88
2018-08-23T21:03:46.736Z,98005.03
2018-08-23T21:06:14.500Z,98010.61
2018-08-23T21:08:41.030Z,98004.41
2018-08-23T21:11:07.533Z,98000.59
2018-08-23T21:13:34.303Z,97993.72
2018-08-23T21:16:01.727Z,98000.23
2018-08-23T21:18:28.702Z,98002.52
2018-08-23T21:20:56.454Z,98001.48
2018-08-23T21:23:23.472Z,98004.94
2018-08-23T21:28:22.849Z,98006.30
2018-08-23T21:30:49.356Z,98007.99
2018-08-23T21:33:15.835Z,98007.14
2018-08-23T21:35:42.638Z,98011.35
2018-08-23T21:38:09.136Z,98017.63
2018-08-23T21:40:35.602Z,98005.42
2018-08-23T21:43:02.353Z,98012.31
2018-08-23T21:45:28.846Z,98011.91
2018-08-23T21:47:55.340Z,98007.83
2018-08-23T21:50:23.578Z,98019.83
2018-08-23T21:52:51.094Z,98015.82
2018-08-23T21:55:17.591Z,98013.14
2018-08-23T21:57:45.261Z,98017.45
2018-08-23T22:00:11.771Z,98014.28
2018-08-23T22:02:38.759Z,98011.65
2018-08-23T22:05:05.528Z,98021.86
2018-08-23T22:07:35.654Z,98018.00
2018-08-23T22:10:02.183Z,98009.27
2018-08-23T22:12:28.706Z,98009.22
2018-08-23T22:14:55.232Z,98012.39
2018-08-23T22:17:22.092Z,98008.92
2018-08-23T22:19:48.651Z,98007.35
2018-08-23T22:22:15.247Z,97999.98
2018-08-23T22:24:42.036Z,98000.76
2018-08-23T22:27:08.504Z,97999.78
2018-08-23T22:29:34.993Z,98001.61
2018-08-23T22:32:01.751Z,97985.85
2018-08-23T22:34:28.222Z,97992.14
2018-08-23T22:36:54.673Z,97993.11
2018-08-23T22:39:21.229Z,97999.80
2018-08-23T22:41:47.707Z,97999.44
2018-08-23T22:44:14.560Z,97998.63
2018-08-23T22:46:42.294Z,97992.06
2018-08-23T22:49:08.794Z,97991.09
2018-08-23T22:51:35.754Z,97992.71
2018-08-23T22:54:02.261Z,97984.33
2018-08-23T22:56:29.547Z,97983.16
2018-08-23T22:58:56.357Z,97984.69
2018-08-23T23:01:22.854Z,97976.19
2018-08-23T23:03:49.376Z,97974.04
2018-08-23T23:06:16.177Z,97979.27
2018-08-23T23:08:42.666Z,97973.55
2018-08-23T23:11:09.163Z,97967.30
2018-08-23T23:13:36.312Z,97958.63
2018-08-23T23:16:02.787Z,97955.80
2018-08-23T23:18:29.270Z,97954.33
2018-08-23T23:20:55.737Z,97948.14
2018-08-23T23:23:23.270Z,97947.16
2018-08-23T23:25:49.943Z,97946.96
2018-08-23T23:28:16.571Z,97947.58
2018-08-23T23:30:44.320Z,97953.94
2018-08-23T23:33:11.363Z,97956.54
2018-08-23T23:35:38.764Z,97955.42
2018-08-23T23:38:05.441Z,97953.76
2018-08-23T23:40:32.243Z,97955.88
2018-08-23T23:42:58.795Z,97954.75
2018-08-23T23:45:25.280Z,97953.90
2018-08-23T23:47:52.105Z,97961.23
2018-08-23T23:50:18.573Z,97956.30
2018-08-23T23:52:45.053Z,97949.09
2018-08-23T23:55:11.845Z,97948.93
2018-08-23T23:57:38.337Z,97940.78
